createdAt,value
2023-03-17T00:01:56.835Z,3.75
2023-03-17T00:04:25.628Z,3.67
2023-03-17T00:06:54.454Z,3.75
2023-03-17T00:09:22.452Z,3.53
2023-03-17T00:11:50.845Z,3.67
2023-03-17T00:14:19.774Z,4.03
2023-03-17T00:16:52.815Z,3.67
2023-03-17T00:19:30.024Z,3.47
2023-03-17T00:21:58.986Z,3.78
2023-03-17T00:24:27.400Z,4.03
2023-03-17T00:26:55.138Z,3.10
2023-03-17T00:29:23.313Z,3.75
2023-03-17T00:31:51.202Z,3.60
2023-03-17T00:34:23.390Z,3.63
2023-03-17T00:36:51.679Z,3.20
2023-03-17T00:39:19.724Z,3.40
2023-03-17T00:41:50.300Z,3.63
2023-03-17T00:44:18.486Z,3.78
2023-03-17T00:46:46.662Z,3.45
2023-03-17T00:49:20.166Z,3.92
2023-03-17T00:51:48.280Z,3.60
2023-03-17T00:54:16.476Z,3.15
2023-03-17T00:56:44.986Z,3.45
2023-03-17T00:59:27.479Z,3.53
2023-03-17T01:01:55.450Z,3.45
2023-03-17T01:04:23.974Z,3.80
2023-03-17T01:06:52.270Z,3.60
2023-03-17T01:09:24.129Z,3.40
2023-03-17T01:11:51.750Z,3.47
2023-03-17T01:14:19.022Z,3.55
2023-03-17T01:16:47.738Z,3.40
2023-03-17T01:19:15.186Z,3.53
2023-03-17T01:21:42.912Z,3.40
2023-03-17T01:24:11.695Z,3.03
2023-03-17T01:26:40.505Z,3.60
2023-03-17T01:29:07.959Z,3.25
2023-03-17T01:31:36.229Z,3.45
2023-03-17T01:34:06.190Z,3.53
2023-03-17T01:36:34.350Z,3.80
2023-03-17T01:39:01.838Z,3.60
2023-03-17T01:41:33.738Z,3.83
2023-03-17T01:44:01.201Z,3.38
2023-03-17T01:46:31.136Z,3.20
2023-03-17T01:49:10.368Z,3.50
2023-03-17T01:51:52.570Z,3.40
2023-03-17T01:54:39.797Z,3.58
2023-03-17T01:57:13.609Z,3.78
2023-03-17T01:59:49.506Z,3.60
2023-03-17T02:02:28.631Z,3.88
2023-03-17T02:04:56.791Z,3.80
2023-03-17T02:07:26.597Z,3.60
2023-03-17T02:09:56.088Z,3.15
2023-03-17T02:12:27.822Z,3.25
2023-03-17T02:14:55.176Z,3.30
2023-03-17T02:17:26.123Z,3.38
2023-03-17T02:19:54.067Z,3.67
2023-03-17T02:22:24.022Z,3.63
2023-03-17T02:24:55.756Z,3.65
2023-03-17T02:27:31.124Z,3.35
2023-03-17T02:29:59.837Z,3.20
2023-03-17T02:32:27.728Z,3.47
2023-03-17T02:34:56.071Z,3.45
2023-03-17T02:37:24.079Z,3.35
2023-03-17T02:39:52.613Z,3.45
2023-03-17T02:42:20.043Z,3.00
2023-03-17T02:44:47.402Z,3.20
2023-03-17T02:47:15.246Z,3.17
2023-03-17T02:49:43.478Z,3.03
2023-03-17T02:52:10.958Z,3.13
2023-03-17T02:54:38.711Z,3.20
2023-03-17T02:57:07.613Z,2.60
2023-03-17T02:59:35.852Z,2.78
2023-03-17T03:02:03.180Z,3.03
2023-03-17T03:04:30.625Z,3.20
2023-03-17T03:06:57.967Z,3.20
2023-03-17T03:09:25.863Z,3.40
2023-03-17T03:11:53.239Z,2.83
2023-03-17T03:14:20.788Z,2.97
2023-03-17T03:16:48.367Z,2.45
2023-03-17T03:19:16.452Z,2.75
2023-03-17T03:21:44.133Z,2.75
2023-03-17T03:24:11.606Z,2.30
2023-03-17T03:26:38.924Z,2.70
2023-03-17T03:29:06.209Z,2.90
2023-03-17T03:31:33.646Z,2.50
2023-03-17T03:34:00.992Z,2.80
2023-03-17T03:36:28.591Z,2.70
2023-03-17T03:38:56.023Z,2.58
2023-03-17T03:41:23.340Z,2.85
2023-03-17T03:43:50.823Z,2.58
2023-03-17T03:46:18.210Z,2.30
2023-03-17T03:48:45.589Z,2.45
2023-03-17T03:51:12.923Z,2.20
2023-03-17T03:53:40.381Z,2.60
2023-03-17T03:56:08.079Z,2.65
2023-03-17T03:58:35.694Z,2.38
2023-03-17T04:01:07.508Z,2.38
2023-03-17T04:03:35.273Z,2.50
2023-03-17T04:06:03.504Z,2.60
2023-03-17T04:08:31.841Z,2.40
2023-03-17T04:10:59.208Z,2.53
2023-03-17T04:13:27.094Z,2.35
2023-03-17T04:15:54.574Z,2.58
2023-03-17T04:18:21.996Z,2.30
2023-03-17T04:20:49.368Z,2.40
2023-03-17T04:23:17.337Z,2.33
2023-03-17T04:25:45.028Z,2.55
2023-03-17T04:28:12.317Z,2.17
2023-03-17T04:30:39.593Z,3.08
2023-03-17T04:33:07.271Z,2.50
2023-03-17T04:35:34.813Z,2.67
2023-03-17T04:38:02.768Z,2.33
2023-03-17T04:40:30.428Z,2.13
2023-03-17T04:42:57.861Z,2.33
2023-03-17T04:45:25.763Z,2.25
2023-03-17T04:47:53.054Z,2.00
2023-03-17T04:50:20.645Z,2.00
2023-03-17T04:52:47.946Z,2.08
2023-03-17T04:55:15.639Z,2.45
2023-03-17T04:57:43.697Z,2.30
2023-03-17T05:00:12.856Z,2.30
2023-03-17T05:02:40.246Z,2.28
2023-03-17T05:05:07.667Z,2.40
2023-03-17T05:07:34.986Z,1.95
2023-03-17T05:10:02.337Z,2.20
2023-03-17T05:12:29.668Z,2.15
2023-03-17T05:14:56.977Z,2.63
2023-03-17T05:17:24.320Z,2.50
2023-03-17T05:19:51.652Z,2.72
2023-03-17T05:22:19.772Z,2.95
2023-03-17T05:24:47.621Z,2.72
2023-03-17T05:27:15.025Z,2.97
2023-03-17T05:29:42.403Z,2.60
2023-03-17T05:32:09.838Z,2.58
2023-03-17T05:34:37.194Z,2.75
2023-03-17T05:37:04.455Z,2.92
2023-03-17T05:39:32.013Z,3.03
2023-03-17T05:41:59.253Z,2.75
2023-03-17T05:44:26.574Z,2.97
2023-03-17T05:46:55.223Z,2.42
2023-03-17T05:49:22.547Z,3.00
2023-03-17T05:51:49.903Z,2.53
2023-03-17T05:54:17.317Z,2.58
2023-03-17T05:56:44.574Z,2.00
2023-03-17T05:59:14.912Z,2.17
2023-03-17T06:01:42.584Z,2.20
2023-03-17T06:04:10.159Z,2.50
2023-03-17T06:06:37.429Z,2.40
2023-03-17T06:09:04.768Z,2.15
2023-03-17T06:11:32.195Z,1.92
2023-03-17T06:13:59.510Z,2.10
2023-03-17T06:16:30.499Z,2.20
2023-03-17T06:18:57.873Z,2.40
2023-03-17T06:21:25.678Z,2.40
2023-03-17T06:23:53.017Z,2.70
2023-03-17T06:26:20.703Z,2.58
2023-03-17T06:28:48.041Z,2.72
2023-03-17T06:31:15.655Z,2.65
2023-03-17T06:33:43.818Z,2.70
2023-03-17T06:36:11.179Z,2.80
2023-03-17T06:38:39.341Z,2.67
2023-03-17T06:41:06.889Z,2.75
2023-03-17T06:43:34.314Z,2.80
2023-03-17T06:46:02.103Z,2.72
2023-03-17T06:48:29.526Z,2.72
2023-03-17T06:50:57.162Z,2.70
2023-03-17T06:53:24.592Z,2.53
2023-03-17T06:55:51.983Z,2.22
2023-03-17T06:58:20.743Z,2.50
2023-03-17T07:00:49.011Z,4.13
2023-03-17T07:03:16.945Z,5.72
2023-03-17T07:05:44.590Z,4.45
2023-03-17T07:08:13.194Z,14.07
2023-03-17T07:10:43.400Z,4.55
2023-03-17T07:13:10.749Z,3.42
2023-03-17T07:15:38.758Z,3.38
2023-03-17T07:18:07.029Z,3.05
2023-03-17T07:20:34.499Z,2.95
2023-03-17T07:23:02.490Z,2.85
2023-03-17T07:25:30.158Z,4.03
2023-03-17T07:27:58.546Z,4.13
2023-03-17T07:30:26.861Z,4.10
2023-03-17T07:32:55.287Z,3.72
2023-03-17T07:35:23.345Z,3.55
2023-03-17T07:37:50.747Z,3.58
2023-03-17T07:40:19.003Z,3.22
2023-03-17T07:42:46.742Z,3.58
2023-03-17T07:45:14.124Z,3.40
2023-03-17T07:47:41.912Z,3.20
2023-03-17T07:50:10.826Z,3.45
2023-03-17T07:52:38.255Z,3.78
2023-03-17T07:55:08.560Z,3.30
2023-03-17T07:57:36.766Z,4.10
2023-03-17T08:00:09.010Z,4.30
2023-03-17T08:02:39.879Z,3.85
2023-03-17T08:05:07.909Z,2.80
2023-03-17T08:07:37.452Z,1.75
2023-03-17T08:10:07.506Z,0.90
2023-03-17T08:12:35.855Z,1.10
2023-03-17T08:15:12.053Z,2.67
2023-03-17T08:17:40.663Z,2.33
2023-03-17T08:20:10.629Z,2.00
2023-03-17T08:22:42.428Z,2.67
2023-03-17T08:25:12.685Z,1.95
2023-03-17T08:27:40.669Z,1.90
2023-03-17T08:30:08.646Z,2.08
2023-03-17T08:32:36.629Z,1.73
2023-03-17T08:35:06.340Z,11.10
2023-03-17T08:37:33.697Z,2.85
2023-03-17T08:40:01.330Z,1.80
2023-03-17T08:42:28.625Z,1.90
2023-03-17T08:44:56.012Z,2.40
2023-03-17T08:47:23.680Z,2.10
2023-03-17T08:49:50.986Z,2.08
2023-03-17T08:52:18.398Z,2.03
2023-03-17T08:54:47.252Z,2.15
2023-03-17T08:57:15.806Z,2.00
2023-03-17T08:59:43.257Z,2.25
2023-03-17T09:02:14.502Z,2.00
2023-03-17T09:04:42.578Z,2.05
2023-03-17T09:07:13.151Z,1.88
2023-03-17T09:09:40.837Z,1.90
2023-03-17T09:12:09.343Z,1.80
2023-03-17T09:14:43.521Z,1.77
2023-03-17T09:17:13.905Z,1.90
2023-03-17T09:19:41.878Z,2.10
2023-03-17T09:22:14.145Z,1.88
2023-03-17T09:24:42.036Z,1.70
2023-03-17T09:27:09.430Z,2.17
2023-03-17T09:29:36.914Z,1.90
2023-03-17T09:32:04.359Z,1.90
2023-03-17T09:34:31.751Z,1.70
2023-03-17T09:36:59.787Z,1.77
2023-03-17T09:39:27.550Z,1.40
2023-03-17T09:42:19.925Z,1.58
2023-03-17T09:45:28.081Z,2.00
2023-03-17T09:48:10.924Z,1.52
2023-03-17T09:50:57.613Z,2.08
2023-03-17T09:53:34.629Z,1.73
2023-03-17T09:56:13.692Z,1.95
2023-03-17T09:58:51.274Z,2.45
2023-03-17T10:01:19.455Z,2.20
2023-03-17T10:03:47.736Z,2.35
2023-03-17T10:06:32.237Z,2.50
2023-03-17T10:09:13.885Z,2.28
2023-03-17T10:11:48.671Z,2.25
2023-03-17T10:14:38.389Z,2.10
2023-03-17T10:17:19.675Z,2.15
2023-03-17T10:20:02.249Z,2.28
2023-03-17T10:22:37.284Z,2.30
2023-03-17T10:25:13.748Z,2.40
2023-03-17T10:27:44.898Z,2.40
2023-03-17T10:30:17.194Z,2.50
2023-03-17T10:32:45.920Z,2.58
2023-03-17T10:35:15.211Z,2.92
2023-03-17T10:37:44.147Z,2.50
2023-03-17T10:40:28.681Z,2.50
2023-03-17T10:43:07.707Z,2.42
2023-03-17T10:45:40.940Z,2.53
2023-03-17T10:48:10.674Z,2.65
2023-03-17T10:50:41.084Z,2.33
2023-03-17T10:53:18.390Z,2.90
2023-03-17T10:55:53.426Z,3.08
2023-03-17T10:58:47.530Z,2.40
2023-03-17T11:01:41.557Z,2.78
2023-03-17T11:04:33.929Z,3.20
2023-03-17T11:07:10.885Z,2.70
2023-03-17T11:09:38.364Z,2.80
2023-03-17T11:12:18.606Z,2.78
2023-03-17T11:14:48.328Z,2.85
2023-03-17T11:17:39.295Z,2.70
2023-03-17T11:20:13.190Z,2.80
2023-03-17T11:22:42.977Z,3.33
2023-03-17T11:25:14.797Z,3.30
2023-03-17T11:30:32.977Z,3.35
2023-03-17T11:33:28.301Z,3.30
2023-03-17T11:36:20.119Z,3.35
2023-03-17T11:39:12.622Z,3.33
2023-03-17T11:41:51.039Z,3.53
2023-03-17T11:44:57.966Z,3.58
2023-03-17T11:47:28.427Z,3.53
2023-03-17T11:50:23.461Z,3.67
2023-03-17T11:53:15.728Z,3.38
2023-03-17T11:58:31.830Z,3.80
2023-03-17T12:01:01.769Z,4.18
2023-03-17T12:03:39.072Z,3.75
2023-03-17T12:06:15.418Z,3.13
2023-03-17T12:08:50.458Z,3.30
2023-03-17T12:11:23.524Z,3.75
2023-03-17T12:14:05.902Z,3.80
2023-03-17T12:17:21.631Z,3.40
2023-03-17T12:20:16.480Z,3.63
2023-03-17T12:23:01.922Z,3.25
2023-03-17T12:25:57.626Z,3.70
2023-03-17T12:28:30.236Z,4.00
2023-03-17T12:31:07.281Z,3.35
2023-03-17T12:33:56.916Z,3.80
2023-03-17T12:36:25.150Z,3.50
2023-03-17T12:39:01.961Z,3.13
2023-03-17T12:41:42.984Z,3.33
2023-03-17T12:44:33.198Z,3.30
2023-03-17T12:47:08.829Z,3.85
2023-03-17T12:50:04.623Z,16.65
2023-03-17T12:52:55.870Z,4.40
2023-03-17T12:55:26.890Z,4.10
2023-03-17T12:58:08.111Z,4.13
2023-03-17T13:00:50.674Z,3.60
2023-03-17T13:03:25.898Z,4.53
2023-03-17T13:06:00.564Z,5.65
2023-03-17T13:08:35.675Z,4.68
2023-03-17T13:11:25.393Z,4.07
2023-03-17T13:14:05.884Z,4.68
2023-03-17T13:16:41.202Z,3.70
2023-03-17T13:19:19.085Z,4.05
2023-03-17T13:21:59.902Z,4.43
2023-03-17T13:24:47.398Z,4.05
2023-03-17T13:27:34.871Z,4.25
2023-03-17T13:30:25.883Z,4.43
2023-03-17T13:33:19.773Z,3.80
2023-03-17T13:36:25.525Z,3.63
2023-03-17T13:39:19.715Z,3.53
2023-03-17T13:42:18.139Z,3.75
2023-03-17T13:45:16.573Z,3.78
2023-03-17T13:47:45.981Z,3.53
2023-03-17T13:50:32.792Z,3.80
2023-03-17T13:53:08.700Z,3.65
2023-03-17T13:55:39.835Z,3.55
2023-03-17T13:58:10.939Z,4.00
2023-03-17T14:00:48.960Z,4.13
2023-03-17T14:03:40.195Z,3.83
2023-03-17T14:06:12.012Z,4.18
2023-03-17T14:08:55.674Z,3.72
2023-03-17T14:11:27.444Z,3.35
2023-03-17T14:14:32.098Z,4.10
2023-03-17T14:17:26.001Z,3.50
2023-03-17T14:20:07.024Z,3.95
2023-03-17T14:22:45.152Z,4.13
2023-03-17T14:25:21.217Z,3.78
2023-03-17T14:27:56.167Z,3.72
2023-03-17T14:30:27.289Z,3.80
2023-03-17T14:33:05.735Z,3.83
2023-03-17T14:35:37.595Z,3.40
2023-03-17T14:40:43.722Z,3.33
2023-03-17T14:43:11.655Z,3.67
2023-03-17T14:45:45.441Z,3.83
2023-03-17T14:48:14.825Z,3.13
2023-03-17T14:50:51.798Z,3.90
2023-03-17T14:53:19.773Z,3.63
2023-03-17T14:55:47.495Z,3.15
2023-03-17T14:58:27.337Z,3.75
2023-03-17T15:01:02.097Z,3.88
2023-03-17T15:03:33.007Z,3.95
2023-03-17T15:06:21.388Z,3.50
2023-03-17T15:08:49.077Z,4.05
2023-03-17T15:11:21.318Z,4.00
2023-03-17T15:13:53.155Z,3.72
2023-03-17T15:16:24.931Z,3.75
2023-03-17T15:19:04.548Z,3.70
2023-03-17T15:21:40.532Z,3.70
2023-03-17T15:24:38.868Z,4.55
2023-03-17T15:27:17.685Z,3.92
2023-03-17T15:29:45.832Z,4.43
2023-03-17T15:32:16.140Z,4.18
2023-03-17T15:34:43.489Z,3.75
2023-03-17T15:37:26.521Z,4.18
2023-03-17T15:39:55.933Z,4.05
2023-03-17T15:42:27.762Z,4.38
2023-03-17T15:44:55.491Z,4.40
2023-03-17T15:47:26.481Z,4.20
2023-03-17T15:49:58.259Z,4.60
2023-03-17T15:52:27.626Z,4.30
2023-03-17T15:54:58.179Z,4.65
2023-03-17T15:57:27.121Z,4.57
2023-03-17T15:59:54.445Z,4.75
2023-03-17T16:02:35.535Z,4.97
2023-03-17T16:05:15.748Z,4.68
2023-03-17T16:07:43.100Z,4.60
2023-03-17T16:10:19.215Z,5.07
2023-03-17T16:12:47.417Z,5.15
2023-03-17T16:15:23.906Z,4.85
2023-03-17T16:17:54.095Z,4.38
2023-03-17T16:20:27.744Z,4.60
2023-03-17T16:22:58.901Z,5.05
2023-03-17T16:25:31.437Z,5.30
2023-03-17T16:28:01.849Z,4.53
2023-03-17T16:30:32.073Z,4.43
2023-03-17T16:33:02.435Z,4.78
2023-03-17T16:35:29.950Z,5.25
2023-03-17T16:37:57.479Z,5.28
2023-03-17T16:40:27.788Z,4.88
2023-03-17T16:42:55.405Z,5.10
2023-03-17T16:45:32.855Z,4.85
2023-03-17T16:48:02.648Z,5.00
2023-03-17T16:50:33.029Z,4.75
2023-03-17T16:53:00.640Z,5.13
2023-03-17T16:55:29.168Z,5.40
2023-03-17T16:58:00.754Z,5.03
2023-03-17T17:00:30.259Z,4.82
2023-03-17T17:02:58.351Z,5.05
2023-03-17T17:05:29.039Z,5.28
2023-03-17T17:07:57.651Z,5.00
2023-03-17T17:10:28.667Z,4.75
2023-03-17T17:12:56.336Z,4.57
2023-03-17T17:15:24.552Z,4.93
2023-03-17T17:17:56.181Z,4.97
2023-03-17T17:20:31.768Z,4.90
2023-03-17T17:23:01.018Z,4.95
2023-03-17T17:25:30.100Z,5.68
2023-03-17T17:27:58.449Z,5.20
2023-03-17T17:30:28.337Z,5.10
2023-03-17T17:32:58.045Z,5.90
2023-03-17T17:35:27.066Z,5.95
2023-03-17T17:37:54.778Z,5.20
2023-03-17T17:40:26.976Z,5.65
2023-03-17T17:42:54.715Z,5.60
2023-03-17T17:45:22.497Z,5.18
2023-03-17T17:47:50.685Z,5.30
2023-03-17T17:50:23.360Z,5.50
2023-03-17T17:52:50.731Z,5.50
2023-03-17T17:55:18.586Z,5.45
2023-03-17T17:57:46.156Z,5.78
2023-03-17T18:00:16.429Z,5.65
2023-03-17T18:02:44.565Z,5.35
2023-03-17T18:05:12.749Z,6.22
2023-03-17T18:07:40.820Z,6.50
2023-03-17T18:10:13.208Z,7.15
2023-03-17T18:12:40.601Z,6.43
2023-03-17T18:15:08.774Z,6.10
2023-03-17T18:17:36.136Z,5.88
2023-03-17T18:20:03.731Z,6.18
2023-03-17T18:22:31.137Z,6.47
2023-03-17T18:24:58.461Z,6.88
2023-03-17T18:27:26.103Z,7.07
2023-03-17T18:29:55.585Z,6.78
2023-03-17T18:32:24.773Z,6.78
2023-03-17T18:34:52.202Z,7.43
2023-03-17T18:37:19.594Z,6.82
2023-03-17T18:39:58.631Z,8.10
2023-03-17T18:42:34.821Z,7.95
2023-03-17T18:45:02.314Z,7.45
2023-03-17T18:47:29.609Z,7.32
2023-03-17T18:49:58.110Z,7.75
2023-03-17T18:52:31.407Z,7.18
2023-03-17T18:54:59.309Z,5.90
2023-03-17T18:57:27.609Z,6.07
2023-03-17T18:59:55.759Z,6.07
2023-03-17T19:02:23.151Z,7.85
2023-03-17T19:04:50.858Z,7.22
2023-03-17T19:07:18.333Z,8.25
2023-03-17T19:09:45.683Z,9.15
2023-03-17T19:12:13.541Z,8.77
2023-03-17T19:14:40.991Z,9.93
2023-03-17T19:17:08.838Z,8.88
2023-03-17T19:19:37.001Z,9.43
2023-03-17T19:22:06.285Z,9.00
2023-03-17T19:24:36.097Z,9.60
2023-03-17T19:27:04.376Z,9.52
2023-03-17T19:29:32.762Z,9.75
2023-03-17T19:32:00.212Z,10.18
2023-03-17T19:34:27.907Z,9.80
2023-03-17T19:36:55.645Z,10.70
2023-03-17T19:39:23.379Z,10.00
2023-03-17T19:41:54.910Z,10.23
2023-03-17T19:44:22.439Z,10.18
2023-03-17T19:46:49.946Z,9.55
2023-03-17T19:49:17.783Z,10.95
2023-03-17T19:51:45.275Z,10.57
2023-03-17T19:54:13.239Z,9.73
2023-03-17T19:56:40.806Z,11.52
2023-03-17T19:59:08.952Z,11.10
2023-03-17T20:01:38.059Z,11.50
2023-03-17T20:04:06.984Z,10.75
2023-03-17T20:06:34.673Z,11.20
2023-03-17T20:09:05.746Z,10.90
2023-03-17T20:11:34.128Z,11.00
2023-03-17T20:14:02.789Z,11.15
2023-03-17T20:16:33.498Z,10.85
2023-03-17T20:19:02.391Z,11.90
2023-03-17T20:21:30.121Z,11.65
2023-03-17T20:23:57.810Z,11.80
2023-03-17T20:26:25.581Z,10.63
2023-03-17T20:28:53.818Z,10.23
2023-03-17T20:31:22.521Z,10.73
2023-03-17T20:33:49.875Z,10.32
2023-03-17T20:36:17.289Z,10.98
2023-03-17T20:38:44.562Z,11.20
2023-03-17T20:41:14.793Z,10.50
2023-03-17T20:43:42.303Z,11.07
2023-03-17T20:46:16.517Z,10.90
2023-03-17T20:48:46.568Z,11.85
2023-03-17T20:51:16.830Z,10.27
2023-03-17T20:53:46.276Z,10.10
2023-03-17T20:56:18.828Z,10.65
2023-03-17T20:58:47.076Z,10.98
2023-03-17T21:01:17.218Z,10.13
2023-03-17T21:03:46.201Z,10.43
2023-03-17T21:06:14.209Z,9.40
2023-03-17T21:08:42.391Z,9.15
2023-03-17T21:11:16.119Z,7.38
2023-03-17T21:13:44.281Z,7.63
2023-03-17T21:16:18.111Z,7.38
2023-03-17T21:18:45.577Z,7.05
2023-03-17T21:21:13.207Z,6.82
2023-03-17T21:23:41.643Z,7.93
2023-03-17T21:26:11.914Z,7.78
2023-03-17T21:28:41.461Z,7.95
2023-03-17T21:31:10.727Z,7.72
2023-03-17T21:33:38.510Z,7.53
2023-03-17T21:36:06.625Z,7.32
2023-03-17T21:38:34.257Z,6.97
2023-03-17T21:41:22.376Z,7.30
2023-03-17T21:43:50.468Z,6.65
2023-03-17T21:46:17.948Z,7.70
2023-03-17T21:48:45.514Z,8.15
2023-03-17T21:51:13.065Z,7.15
2023-03-17T21:53:40.386Z,7.60
2023-03-17T21:56:08.705Z,8.15
2023-03-17T21:58:36.384Z,8.98
2023-03-17T22:01:04.191Z,9.30
2023-03-17T22:03:32.324Z,9.80
2023-03-17T22:05:59.794Z,9.50
2023-03-17T22:08:27.220Z,9.73
2023-03-17T22:10:54.805Z,11.07
2023-03-17T22:13:22.195Z,11.45
2023-03-17T22:15:49.748Z,11.73
2023-03-17T22:18:17.931Z,12.48
2023-03-17T22:20:45.552Z,13.45
2023-03-17T22:23:13.158Z,12.82
2023-03-17T22:25:40.537Z,12.48
2023-03-17T22:28:08.613Z,13.40
2023-03-17T22:30:39.383Z,12.10
2023-03-17T22:33:08.138Z,11.02
2023-03-17T22:35:36.568Z,13.45
2023-03-17T22:38:05.335Z,15.10
2023-03-17T22:40:33.375Z,13.70
2023-03-17T22:43:01.109Z,12.82
2023-03-17T22:45:28.797Z,13.35
2023-03-17T22:47:56.258Z,13.52
2023-03-17T22:50:25.019Z,12.48
2023-03-17T22:52:52.617Z,11.88
2023-03-17T22:55:20.125Z,12.73
2023-03-17T22:57:47.524Z,12.77
2023-03-17T23:00:17.201Z,12.88
2023-03-17T23:02:46.446Z,14.20
2023-03-17T23:05:14.620Z,13.88
2023-03-17T23:07:50.447Z,14.65
2023-03-17T23:10:23.086Z,14.32
2023-03-17T23:15:19.760Z,13.25
2023-03-17T23:17:47.494Z,13.40
2023-03-17T23:20:15.851Z,13.52
2023-03-17T23:22:43.479Z,13.70
2023-03-17T23:25:12.560Z,12.13
2023-03-17T23:27:40.844Z,11.88
2023-03-17T23:30:11.234Z,11.65
2023-03-17T23:32:41.723Z,11.40
2023-03-17T23:35:10.840Z,12.45
2023-03-17T23:37:38.400Z,13.50
2023-03-17T23:40:07.050Z,12.65
2023-03-17T23:42:34.392Z,12.20
2023-03-17T23:45:02.953Z,11.70
2023-03-17T23:47:31.175Z,11.82
2023-03-17T23:49:58.543Z,10.77
2023-03-17T23:52:26.254Z,11.07
2023-03-17T23:54:53.641Z,10.70
2023-03-17T23:57:20.973Z,11.20
2023-03-17T23:59:48.320Z,11.10
